sensor_id;sensor_type;location;lat;lon;timestamp;pressure;altitude;pressure_sealevel;temperature;humidity
75521;BME280;64102;48.628;9.002;2023-12-20T00:02:04;95984.25;;;4.65;100.00
75521;BME280;64102;48.628;9.002;2023-12-20T00:04:29;95983.47;;;4.64;100.00
75521;BME280;64102;48.628;9.002;2023-12-20T00:06:55;95978.22;;;4.66;100.00
75521;BME280;64102;48.628;9.002;2023-12-20T00:09:21;95982.66;;;4.64;100.00
75521;BME280;64102;48.628;9.002;2023-12-20T00:11:46;95974.25;;;4.62;100.00
75521;BME280;64102;48.628;9.002;2023-12-20T00:14:11;95968.91;;;4.65;100.00
75521;BME280;64102;48.628;9.002;2023-12-20T00:16:37;95963.03;;;4.64;100.00
75521;BME280;64102;48.628;9.002;2023-12-20T00:19:02;95969.97;;;4.62;100.00
75521;BME280;64102;48.628;9.002;2023-12-20T00:21:27;95973.56;;;4.60;100.00
75521;BME280;64102;48.628;9.002;2023-12-20T00:23:53;95963.16;;;4.50;100.00
75521;BME280;64102;48.628;9.002;2023-12-20T00:26:18;95962.41;;;4.48;100.00
75521;BME280;64102;48.628;9.002;2023-12-20T00:28:43;95957.22;;;4.49;100.00
75521;BME280;64102;48.628;9.002;2023-12-20T00:31:09;95965.06;;;4.46;100.00
75521;BME280;64102;48.628;9.002;2023-12-20T00:33:34;95952.81;;;4.51;100.00
75521;BME280;64102;48.628;9.002;2023-12-20T00:36:00;95958.13;;;4.48;100.00
75521;BME280;64102;48.628;9.002;2023-12-20T00:38:25;95954.06;;;4.46;100.00
75521;BME280;64102;48.628;9.002;2023-12-20T00:40:51;95946.91;;;4.38;100.00
75521;BME280;64102;48.628;9.002;2023-12-20T00:43:16;95946.41;;;4.46;100.00
75521;BME280;64102;48.628;9.002;2023-12-20T00:45:41;95942.50;;;4.40;100.00
75521;BME280;64102;48.628;9.002;2023-12-20T00:48:07;95931.88;;;4.34;100.00
75521;BME280;64102;48.628;9.002;2023-12-20T00:50:32;95938.03;;;4.31;100.00
75521;BME280;64102;48.628;9.002;2023-12-20T00:52:58;95940.81;;;4.28;100.00
75521;BME280;64102;48.628;9.002;2023-12-20T00:55:23;95942.03;;;4.23;100.00
75521;BME280;64102;48.628;9.002;2023-12-20T00:57:48;95942.13;;;4.21;100.00
75521;BME280;64102;48.628;9.002;2023-12-20T01:00:14;95949.38;;;4.15;100.00
75521;BME280;64102;48.628;9.002;2023-12-20T01:02:39;95949.78;;;4.09;100.00
75521;BME280;64102;48.628;9.002;2023-12-20T01:05:05;95959.41;;;4.05;100.00
75521;BME280;64102;48.628;9.002;2023-12-20T01:07:32;95957.16;;;4.00;100.00
75521;BME280;64102;48.628;9.002;2023-12-20T01:09:57;95964.50;;;3.92;100.00
75521;BME280;64102;48.628;9.002;2023-12-20T01:12:23;95960.69;;;3.85;100.00
75521;BME280;64102;48.628;9.002;2023-12-20T01:14:48;95966.91;;;3.81;100.00
75521;BME280;64102;48.628;9.002;2023-12-20T01:17:13;95954.47;;;3.77;100.00
75521;BME280;64102;48.628;9.002;2023-12-20T01:19:39;95959.66;;;3.75;100.00
75521;BME280;64102;48.628;9.002;2023-12-20T01:22:04;95964.06;;;3.73;100.00
75521;BME280;64102;48.628;9.002;2023-12-20T01:24:30;95968.94;;;3.76;100.00
75521;BME280;64102;48.628;9.002;2023-12-20T01:26:56;95963.03;;;3.76;100.00
75521;BME280;64102;48.628;9.002;2023-12-20T01:29:21;95960.69;;;3.73;100.00
75521;BME280;64102;48.628;9.002;2023-12-20T01:31:46;95966.63;;;3.73;100.00
75521;BME280;64102;48.628;9.002;2023-12-20T01:34:12;95970.16;;;3.71;100.00
75521;BME280;64102;48.628;9.002;2023-12-20T01:36:37;95963.44;;;3.70;100.00
75521;BME280;64102;48.628;9.002;2023-12-20T01:39:02;95970.06;;;3.72;100.00
75521;BME280;64102;48.628;9.002;2023-12-20T01:41:28;95974.19;;;3.75;100.00
75521;BME280;64102;48.628;9.002;2023-12-20T01:43:53;95968.94;;;3.76;100.00
75521;BME280;64102;48.628;9.002;2023-12-20T01:46:20;95968.13;;;3.76;100.00
75521;BME280;64102;48.628;9.002;2023-12-20T01:48:46;95967.31;;;3.75;100.00
75521;BME280;64102;48.628;9.002;2023-12-20T01:51:11;95969.25;;;3.72;100.00
75521;BME280;64102;48.628;9.002;2023-12-20T01:53:38;95964.88;;;3.74;100.00
75521;BME280;64102;48.628;9.002;2023-12-20T01:56:04;95960.91;;;3.70;100.00
75521;BME280;64102;48.628;9.002;2023-12-20T01:58:29;95961.50;;;3.73;100.00
75521;BME280;64102;48.628;9.002;2023-12-20T02:00:55;95950.09;;;3.79;100.00
75521;BME280;64102;48.628;9.002;2023-12-20T02:03:21;95945.16;;;3.76;100.00
75521;BME280;64102;48.628;9.002;2023-12-20T02:05:47;95947.03;;;3.74;100.00
75521;BME280;64102;48.628;9.002;2023-12-20T02:08:13;95952.13;;;3.74;100.00
75521;BME280;64102;48.628;9.002;2023-12-20T02:10:38;95950.41;;;3.74;100.00
75521;BME280;64102;48.628;9.002;2023-12-20T02:13:04;95962.50;;;3.71;100.00
75521;BME280;64102;48.628;9.002;2023-12-20T02:15:29;95957.31;;;3.72;100.00
75521;BME280;64102;48.628;9.002;2023-12-20T02:17:55;95953.63;;;3.76;100.00
75521;BME280;64102;48.628;9.002;2023-12-20T02:20:20;95957.31;;;3.72;100.00
75521;BME280;64102;48.628;9.002;2023-12-20T02:22:46;95955.06;;;3.68;100.00
75521;BME280;64102;48.628;9.002;2023-12-20T02:25:11;95955.88;;;3.68;100.00
75521;BME280;64102;48.628;9.002;2023-12-20T02:27:37;95955.06;;;3.68;100.00
75521;BME280;64102;48.628;9.002;2023-12-20T02:30:02;95957.69;;;3.66;100.00
75521;BME280;64102;48.628;9.002;2023-12-20T02:32:28;95959.34;;;3.67;100.00
75521;BME280;64102;48.628;9.002;2023-12-20T02:34:54;95955.97;;;3.67;100.00
75521;BME280;64102;48.628;9.002;2023-12-20T02:37:20;95950.25;;;3.63;100.00
75521;BME280;64102;48.628;9.002;2023-12-20T02:39:45;95951.16;;;3.62;100.00
75521;BME280;64102;48.628;9.002;2023-12-20T02:42:11;95952.00;;;3.63;100.00
75521;BME280;64102;48.628;9.002;2023-12-20T02:44:36;95952.09;;;3.61;100.00
75521;BME280;64102;48.628;9.002;2023-12-20T02:47:02;95944.44;;;3.61;100.00
75521;BME280;64102;48.628;9.002;2023-12-20T02:49:27;95949.56;;;3.61;100.00
75521;BME280;64102;48.628;9.002;2023-12-20T02:51:53;95950.47;;;3.60;100.00
75521;BME280;64102;48.628;9.002;2023-12-20T02:54:18;95960.59;;;3.62;100.00
75521;BME280;64102;48.628;9.002;2023-12-20T02:56:43;95955.47;;;3.62;100.00
75521;BME280;64102;48.628;9.002;2023-12-20T02:59:09;95958.13;;;3.60;100.00
75521;BME280;64102;48.628;9.002;2023-12-20T03:01:34;95954.75;;;3.59;100.00
75521;BME280;64102;48.628;9.002;2023-12-20T03:04:00;95954.66;;;3.61;100.00
75521;BME280;64102;48.628;9.002;2023-12-20T03:06:26;95958.22;;;3.58;100.00
75521;BME280;64102;48.628;9.002;2023-12-20T03:08:51;95968.31;;;3.60;100.00
75521;BME280;64102;48.628;9.002;2023-12-20T03:11:17;95959.84;;;3.59;100.00
75521;BME280;64102;48.628;9.002;2023-12-20T03:13:42;95966.47;;;3.62;100.00
75521;BME280;64102;48.628;9.002;2023-12-20T03:16:09;95968.25;;;3.62;100.00
75521;BME280;64102;48.628;9.002;2023-12-20T03:18:34;95967.22;;;3.64;100.00
75521;BME280;64102;48.628;9.002;2023-12-20T03:21:00;95976.50;;;3.65;100.00
75521;BME280;64102;48.628;9.002;2023-12-20T03:23:25;95978.03;;;3.68;100.00
75521;BME280;64102;48.628;9.002;2023-12-20T03:25:52;95972.84;;;3.69;100.00
75521;BME280;64102;48.628;9.002;2023-12-20T03:28:17;95978.94;;;3.67;100.00
75521;BME280;64102;48.628;9.002;2023-12-20T03:30:43;95986.78;;;3.64;100.00
75521;BME280;64102;48.628;9.002;2023-12-20T03:33:09;95979.53;;;3.57;100.00
75521;BME280;64102;48.628;9.002;2023-12-20T03:35:34;95992.56;;;3.53;100.00
75521;BME280;64102;48.628;9.002;2023-12-20T03:37:59;95988.50;;;3.50;100.00
75521;BME280;64102;48.628;9.002;2023-12-20T03:40:25;95989.31;;;3.51;100.00
75521;BME280;64102;48.628;9.002;2023-12-20T03:42:51;95992.88;;;3.48;100.00
75521;BME280;64102;48.628;9.002;2023-12-20T03:45:16;95989.63;;;3.46;100.00
75521;BME280;64102;48.628;9.002;2023-12-20T03:47:41;95995.63;;;3.45;100.00
75521;BME280;64102;48.628;9.002;2023-12-20T03:50:07;95993.00;;;3.47;100.00
75521;BME280;64102;48.628;9.002;2023-12-20T03:52:32;95993.97;;;3.44;100.00
75521;BME280;64102;48.628;9.002;2023-12-20T03:54:58;95992.38;;;3.43;100.00
75521;BME280;64102;48.628;9.002;2023-12-20T03:57:23;95991.72;;;3.40;100.00
75521;BME280;64102;48.628;9.002;2023-12-20T03:59:48;96002.13;;;3.37;100.00
75521;BME280;64102;48.628;9.002;2023-12-20T04:02:14;95993.88;;;3.33;100.00
75521;BME280;64102;48.628;9.002;2023-12-20T04:04:39;95997.13;;;3.35;100.00
75521;BME280;64102;48.628;9.002;2023-12-20T04:07:04;95999.78;;;3.34;100.00
75521;BME280;64102;48.628;9.002;2023-12-20T04:09:30;96001.50;;;3.33;100.00
75521;BME280;64102;48.628;9.002;2023-12-20T04:11:55;95999.03;;;3.32;100.00
75521;BME280;64102;48.628;9.002;2023-12-20T04:14:20;96005.88;;;3.31;100.00
75521;BME280;64102;48.628;9.002;2023-12-20T04:16:46;96008.53;;;3.30;100.00
75521;BME280;64102;48.628;9.002;2023-12-20T04:19:11;95994.16;;;3.29;100.00
75521;BME280;64102;48.628;9.002;2023-12-20T04:21:37;96000.16;;;3.28;100.00
75521;BME280;64102;48.628;9.002;2023-12-20T04:24:02;96008.84;;;3.25;100.00
75521;BME280;64102;48.628;9.002;2023-12-20T04:26:27;96002.09;;;3.24;100.00
75521;BME280;64102;48.628;9.002;2023-12-20T04:28:54;96006.44;;;3.22;100.00
75521;BME280;64102;48.628;9.002;2023-12-20T04:31:19;95997.19;;;3.21;100.00
75521;BME280;64102;48.628;9.002;2023-12-20T04:33:45;96004.03;;;3.21;100.00
75521;BME280;64102;48.628;9.002;2023-12-20T04:36:10;96005.91;;;3.17;100.00
75521;BME280;64102;48.628;9.002;2023-12-20T04:38:36;96008.66;;;3.14;100.00
75521;BME280;64102;48.628;9.002;2023-12-20T04:41:01;96007.03;;;3.13;100.00
75521;BME280;64102;48.628;9.002;2023-12-20T04:43:26;96014.59;;;3.14;100.00
75521;BME280;64102;48.628;9.002;2023-12-20T04:45:51;96023.13;;;3.13;100.00
75521;BME280;64102;48.628;9.002;2023-12-20T04:48:17;96024.88;;;3.13;100.00
75521;BME280;64102;48.628;9.002;2023-12-20T04:50:42;96022.44;;;3.11;100.00
75521;BME280;64102;48.628;9.002;2023-12-20T04:53:07;96033.53;;;3.10;100.00
75521;BME280;64102;48.628;9.002;2023-12-20T04:55:33;96030.38;;;3.07;100.00
75521;BME280;64102;48.628;9.002;2023-12-20T04:57:58;96026.09;;;3.07;100.00
75521;BME280;64102;48.628;9.002;2023-12-20T05:00:23;96037.91;;;3.08;100.00
75521;BME280;64102;48.628;9.002;2023-12-20T05:02:49;96037.09;;;3.08;100.00
75521;BME280;64102;48.628;9.002;2023-12-20T05:05:14;96041.47;;;3.06;100.00
75521;BME280;64102;48.628;9.002;2023-12-20T05:07:42;96032.19;;;3.05;100.00
75521;BME280;64102;48.628;9.002;2023-12-20T05:10:08;96039.13;;;3.03;100.00
75521;BME280;64102;48.628;9.002;2023-12-20T05:12:34;96044.22;;;3.03;100.00
75521;BME280;64102;48.628;9.002;2023-12-20T05:14:59;96039.13;;;3.03;100.00
75521;BME280;64102;48.628;9.002;2023-12-20T05:17:25;96050.22;;;3.02;100.00
75521;BME280;64102;48.628;9.002;2023-12-20T05:19:50;96057.88;;;3.02;100.00
75521;BME280;64102;48.628;9.002;2023-12-20T05:22:16;96057.03;;;3.01;100.00
75521;BME280;64102;48.628;9.002;2023-12-20T05:24:42;96062.06;;;3.03;100.00
75521;BME280;64102;48.628;9.002;2023-12-20T05:27:07;96063.50;;;3.07;100.00
75521;BME280;64102;48.628;9.002;2023-12-20T05:29:33;96066.06;;;3.07;100.00
75521;BME280;64102;48.628;9.002;2023-12-20T05:31:58;96063.50;;;3.07;100.00
75521;BME280;64102;48.628;9.002;2023-12-20T05:34:23;96071.84;;;3.09;100.00
75521;BME280;64102;48.628;9.002;2023-12-20T05:36:49;96072.59;;;3.11;100.00
75521;BME280;64102;48.628;9.002;2023-12-20T05:39:14;96068.41;;;3.10;100.00
75521;BME280;64102;48.628;9.002;2023-12-20T05:41:39;96079.22;;;3.13;100.00
75521;BME280;64102;48.628;9.002;2023-12-20T05:44:05;96085.78;;;3.17;100.00
75521;BME280;64102;48.628;9.002;2023-12-20T05:46:30;96082.31;;;3.19;100.00
75521;BME280;64102;48.628;9.002;2023-12-20T05:48:55;96084.94;;;3.17;100.00
75521;BME280;64102;48.628;9.002;2023-12-20T05:51:21;96097.69;;;3.17;100.00
75521;BME280;64102;48.628;9.002;2023-12-20T05:53:46;96091.63;;;3.20;100.00
75521;BME280;64102;48.628;9.002;2023-12-20T05:56:12;96089.97;;;3.19;100.00
75521;BME280;64102;48.628;9.002;2023-12-20T05:58:38;96097.63;;;3.19;100.00
75521;BME280;64102;48.628;9.002;2023-12-20T06:01:04;96094.97;;;3.20;100.00
75521;BME280;64102;48.628;9.002;2023-12-20T06:03:30;96088.97;;;3.21;100.00
75521;BME280;64102;48.628;9.002;2023-12-20T06:05:55;96099.97;;;3.22;100.00
75521;BME280;64102;48.628;9.002;2023-12-20T06:08:21;96106.91;;;3.20;100.00
75521;BME280;64102;48.628;9.002;2023-12-20T06:10:46;96114.66;;;3.18;100.00
75521;BME280;64102;48.628;9.002;2023-12-20T06:13:11;96123.19;;;3.17;100.00
75521;BME280;64102;48.628;9.002;2023-12-20T06:15:38;96119.03;;;3.16;100.00
75521;BME280;64102;48.628;9.002;2023-12-20T06:18:04;96113.19;;;3.14;100.00
75521;BME280;64102;48.628;9.002;2023-12-20T06:20:29;96109.75;;;3.15;100.00
75521;BME280;64102;48.628;9.002;2023-12-20T06:22:54;96109.00;;;3.13;100.00
75521;BME280;64102;48.628;9.002;2023-12-20T06:25:20;96114.09;;;3.13;100.00
75521;BME280;64102;48.628;9.002;2023-12-20T06:27:45;96108.28;;;3.11;100.00
75521;BME280;64102;48.628;9.002;2023-12-20T06:30:11;96110.00;;;3.10;100.00
75521;BME280;64102;48.628;9.002;2023-12-20T06:32:36;96121.84;;;3.11;100.00
75521;BME280;64102;48.628;9.002;2023-12-20T06:35:03;96121.75;;;3.13;100.00
75521;BME280;64102;48.628;9.002;2023-12-20T06:37:30;96123.38;;;3.14;100.00
75521;BME280;64102;48.628;9.002;2023-12-20T06:39:55;96131.78;;;3.16;100.00
75521;BME280;64102;48.628;9.002;2023-12-20T06:42:22;96123.19;;;3.17;100.00
75521;BME280;64102;48.628;9.002;2023-12-20T06:44:47;96112.91;;;3.19;100.00
75521;BME280;64102;48.628;9.002;2023-12-20T06:47:12;96113.75;;;3.19;100.00
75521;BME280;64102;48.628;9.002;2023-12-20T06:49:39;96111.00;;;3.22;100.00
75521;BME280;64102;48.628;9.002;2023-12-20T06:52:04;96118.47;;;3.25;100.00
75521;BME280;64102;48.628;9.002;2023-12-20T06:54:30;96127.75;;;3.26;100.00
75521;BME280;64102;48.628;9.002;2023-12-20T06:56:55;96134.59;;;3.26;100.00
75521;BME280;64102;48.628;9.002;2023-12-20T06:59:20;96139.78;;;3.24;100.00
75521;BME280;64102;48.628;9.002;2023-12-20T07:01:49;96144.25;;;3.21;100.00
75521;BME280;64102;48.628;9.002;2023-12-20T07:04:15;96143.59;;;3.17;100.00
75521;BME280;64102;48.628;9.002;2023-12-20T07:06:41;96156.34;;;3.17;100.00
75521;BME280;64102;48.628;9.002;2023-12-20T07:09:07;96151.34;;;3.15;100.00
75521;BME280;64102;48.628;9.002;2023-12-20T07:11:32;96150.53;;;3.15;100.00
75521;BME280;64102;48.628;9.002;2023-12-20T07:13:57;96148.81;;;3.15;100.00
75521;BME280;64102;48.628;9.002;2023-12-20T07:16:23;96153.09;;;3.15;100.00
75521;BME280;64102;48.628;9.002;2023-12-20T07:18:48;96157.00;;;3.21;100.00
75521;BME280;64102;48.628;9.002;2023-12-20T07:21:13;96165.38;;;3.23;100.00
75521;BME280;64102;48.628;9.002;2023-12-20T07:23:39;96170.38;;;3.24;100.00
75521;BME280;64102;48.628;9.002;2023-12-20T07:26:04;96171.19;;;3.25;100.00
75521;BME280;64102;48.628;9.002;2023-12-20T07:28:29;96178.84;;;3.25;100.00
75521;BME280;64102;48.628;9.002;2023-12-20T07:30:55;96186.31;;;3.28;100.00
75521;BME280;64102;48.628;9.002;2023-12-20T07:33:20;96201.25;;;3.34;100.00
75521;BME280;64102;48.628;9.002;2023-12-20T07:35:45;96199.50;;;3.48;100.00
75521;BME280;64102;48.628;9.002;2023-12-20T07:38:11;96200.41;;;3.62;100.00
75521;BME280;64102;48.628;9.002;2023-12-20T07:40:37;96195.31;;;3.62;100.00
75521;BME280;64102;48.628;9.002;2023-12-20T07:43:03;96200.41;;;3.62;100.00
75521;BME280;64102;48.628;9.002;2023-12-20T07:45:28;96197.03;;;3.61;100.00
75521;BME280;64102;48.628;9.002;2023-12-20T07:47:54;96203.69;;;3.64;100.00
75521;BME280;64102;48.628;9.002;2023-12-20T07:50:19;96210.63;;;3.62;100.00
75521;BME280;64102;48.628;9.002;2023-12-20T07:52:44;96212.34;;;3.61;100.00
75521;BME280;64102;48.628;9.002;2023-12-20T07:55:10;96213.25;;;3.60;100.00
75521;BME280;64102;48.628;9.002;2023-12-20T07:57:35;96215.81;;;3.60;100.00
75521;BME280;64102;48.628;9.002;2023-12-20T08:00:01;96206.50;;;3.59;100.00
75521;BME280;64102;48.628;9.002;2023-12-20T08:02:28;96217.53;;;3.59;100.00
75521;BME280;64102;48.628;9.002;2023-12-20T08:04:54;96215.72;;;3.62;100.00
75521;BME280;64102;48.628;9.002;2023-12-20T08:07:19;96220.09;;;3.59;100.00
75521;BME280;64102;48.628;9.002;2023-12-20T08:09:44;96216.72;;;3.59;100.00
75521;BME280;64102;48.628;9.002;2023-12-20T08:12:10;96209.13;;;3.57;100.00
75521;BME280;64102;48.628;9.002;2023-12-20T08:14:36;96199.88;;;3.56;100.00
75521;BME280;64102;48.628;9.002;2023-12-20T08:17:01;96215.06;;;3.58;100.00
75521;BME280;64102;48.628;9.002;2023-12-20T08:19:27;96217.63;;;3.58;100.00
75521;BME280;64102;48.628;9.002;2023-12-20T08:21:52;96222.63;;;3.59;100.00
75521;BME280;64102;48.628;9.002;2023-12-20T08:24:17;96214.97;;;3.59;100.00
75521;BME280;64102;48.628;9.002;2023-12-20T08:26:43;96219.19;;;3.60;100.00
75521;BME280;64102;48.628;9.002;2023-12-20T08:29:08;96227.94;;;3.56;100.00
75521;BME280;64102;48.628;9.002;2023-12-20T08:31:33;96221.91;;;3.57;100.00
75521;BME280;64102;48.628;9.002;2023-12-20T08:33:59;96231.19;;;3.58;100.00
75521;BME280;64102;48.628;9.002;2023-12-20T08:36:24;96234.66;;;3.57;100.00
75521;BME280;64102;48.628;9.002;2023-12-20T08:38:50;96233.13;;;3.55;100.00
75521;BME280;64102;48.628;9.002;2023-12-20T08:41:19;96237.41;;;3.54;100.00
75521;BME280;64102;48.628;9.002;2023-12-20T08:43:45;96227.09;;;3.56;100.00
75521;BME280;64102;48.628;9.002;2023-12-20T08:46:10;96244.34;;;3.52;100.00
75521;BME280;64102;48.628;9.002;2023-12-20T08:48:36;96243.25;;;3.56;100.00
75521;BME280;64102;48.628;9.002;2023-12-20T08:51:02;96259.19;;;3.60;100.00
75521;BME280;64102;48.628;9.002;2023-12-20T08:53:28;96274.50;;;3.60;100.00
75521;BME280;64102;48.628;9.002;2023-12-20T08:55:53;96274.03;;;3.53;100.00
75521;BME280;64102;48.628;9.002;2023-12-20T08:58:19;96282.16;;;3.60;100.00
75521;BME280;64102;48.628;9.002;2023-12-20T09:00:45;96283.94;;;3.58;100.00
75521;BME280;64102;48.628;9.002;2023-12-20T09:03:10;96280.56;;;3.57;100.00
75521;BME280;64102;48.628;9.002;2023-12-20T09:05:35;96274.69;;;3.57;100.00
75521;BME280;64102;48.628;9.002;2023-12-20T09:08:01;96270.66;;;3.53;100.00
75521;BME280;64102;48.628;9.002;2023-12-20T09:10:26;96276.50;;;3.55;100.00
75521;BME280;64102;48.628;9.002;2023-12-20T09:12:52;96264.19;;;3.47;100.00
75521;BME280;64102;48.628;9.002;2023-12-20T09:15:26;96270.56;;;3.54;100.00
75521;BME280;64102;48.628;9.002;2023-12-20T09:17:51;96270.75;;;3.51;100.00
75521;BME280;64102;48.628;9.002;2023-12-20T09:20:16;96271.84;;;3.62;100.00
75521;BME280;64102;48.628;9.002;2023-12-20T09:22:42;96276.50;;;3.83;100.00
75521;BME280;64102;48.628;9.002;2023-12-20T09:25:08;96272.34;;;3.95;100.00
75521;BME280;64102;48.628;9.002;2023-12-20T09:27:33;96277.75;;;3.76;100.00
75521;BME280;64102;48.628;9.002;2023-12-20T09:29:58;96281.22;;;3.75;100.00
75521;BME280;64102;48.628;9.002;2023-12-20T09:32:24;96276.75;;;3.65;100.00
75521;BME280;64102;48.628;9.002;2023-12-20T09:34:49;96279.13;;;3.68;100.00
75521;BME280;64102;48.628;9.002;2023-12-20T09:37:14;96274.22;;;3.65;100.00
75521;BME280;64102;48.628;9.002;2023-12-20T09:39:40;96266.72;;;5.60;100.00
75521;BME280;64102;48.628;9.002;2023-12-20T09:42:06;96270.22;;;6.45;100.00
75521;BME280;64102;48.628;9.002;2023-12-20T09:44:32;96266.53;;;6.49;100.00
75521;BME280;64102;48.628;9.002;2023-12-20T09:47:02;96278.84;;;7.59;94.81
75521;BME280;64102;48.628;9.002;2023-12-20T09:49:28;96276.06;;;7.96;86.60
75521;BME280;64102;48.628;9.002;2023-12-20T09:51:54;96269.06;;;7.87;85.87
75521;BME280;64102;48.628;9.002;2023-12-20T09:54:21;96266.84;;;7.93;83.76
75521;BME280;64102;48.628;9.002;2023-12-20T09:56:47;96267.75;;;8.15;87.44
75521;BME280;64102;48.628;9.002;2023-12-20T09:59:13;96275.44;;;8.37;80.55
75521;BME280;64102;48.628;9.002;2023-12-20T10:01:40;96271.47;;;6.87;92.49
75521;BME280;64102;48.628;9.002;2023-12-20T10:04:07;96281.03;;;6.61;98.67
75521;BME280;64102;48.628;9.002;2023-12-20T10:06:41;96267.84;;;6.78;96.52
75521;BME280;64102;48.628;9.002;2023-12-20T10:09:08;96268.00;;;6.04;100.00
75521;BME280;64102;48.628;9.002;2023-12-20T10:11:38;96264.56;;;5.29;100.00
75521;BME280;64102;48.628;9.002;2023-12-20T10:14:04;96267.09;;;4.91;100.00
75521;BME280;64102;48.628;9.002;2023-12-20T10:16:31;96265.19;;;4.55;100.00
75521;BME280;64102;48.628;9.002;2023-12-20T10:18:56;96275.69;;;4.50;100.00
75521;BME280;64102;48.628;9.002;2023-12-20T10:21:22;96277.06;;;4.42;100.00
75521;BME280;64102;48.628;9.002;2023-12-20T10:23:51;96271.28;;;4.53;100.00
75521;BME280;64102;48.628;9.002;2023-12-20T10:26:24;96262.31;;;4.60;100.00
75521;BME280;64102;48.628;9.002;2023-12-20T10:29:09;96258.25;;;4.70;100.00
75521;BME280;64102;48.628;9.002;2023-12-20T10:31:35;96238.69;;;5.08;100.00
75521;BME280;64102;48.628;9.002;2023-12-20T10:34:02;96238.69;;;5.08;100.00
75521;BME280;64102;48.628;9.002;2023-12-20T10:36:32;96231.41;;;4.89;100.00
75521;BME280;64102;48.628;9.002;2023-12-20T10:38:59;96233.72;;;4.67;100.00
75521;BME280;64102;48.628;9.002;2023-12-20T10:41:29;96241.19;;;4.70;100.00
75521;BME280;64102;48.628;9.002;2023-12-20T10:44:04;96229.81;;;4.62;100.00
75521;BME280;64102;48.628;9.002;2023-12-20T10:46:33;96224.47;;;4.52;100.00
75521;BME280;64102;48.628;9.002;2023-12-20T10:48:59;96223.63;;;4.39;100.00
75521;BME280;64102;48.628;9.002;2023-12-20T10:51:27;96231.16;;;4.28;100.00
75521;BME280;64102;48.628;9.002;2023-12-20T10:53:55;96227.03;;;4.25;100.00
75521;BME280;64102;48.628;9.002;2023-12-20T10:56:20;96239.94;;;4.24;100.00
75521;BME280;64102;48.628;9.002;2023-12-20T10:58:49;96227.31;;;4.21;100.00
75521;BME280;64102;48.628;9.002;2023-12-20T11:01:16;96218.75;;;4.22;100.00
75521;BME280;64102;48.628;9.002;2023-12-20T11:03:48;96230.50;;;4.24;100.00
75521;BME280;64102;48.628;9.002;2023-12-20T11:15:01;96217.72;;;4.24;100.00
75521;BME280;64102;48.628;9.002;2023-12-20T11:17:29;96215.72;;;4.29;100.00
75521;BME280;64102;48.628;9.002;2023-12-20T11:22:20;96222.03;;;4.50;100.00
75521;BME280;64102;48.628;9.002;2023-12-20T11:24:47;96226.50;;;4.47;100.00
75521;BME280;64102;48.628;9.002;2023-12-20T11:27:13;96218.41;;;4.40;100.00
75521;BME280;64102;48.628;9.002;2023-12-20T11:29:39;96215.88;;;4.40;100.00
75521;BME280;64102;48.628;9.002;2023-12-20T11:34:50;96217.25;;;4.32;97.07
75521;BME280;64102;48.628;9.002;2023-12-20T11:37:16;96215.28;;;4.23;98.01
75521;BME280;64102;48.628;9.002;2023-12-20T11:39:43;96212.81;;;4.21;99.95
75521;BME280;64102;48.628;9.002;2023-12-20T11:42:09;96212.81;;;4.21;100.00
75521;BME280;64102;48.628;9.002;2023-12-20T11:44:36;96213.66;;;4.22;100.00
75521;BME280;64102;48.628;9.002;2023-12-20T11:47:02;96209.84;;;4.15;100.00
75521;BME280;64102;48.628;9.002;2023-12-20T11:49:27;96208.50;;;4.09;100.00
75521;BME280;64102;48.628;9.002;2023-12-20T11:51:56;96220.34;;;4.10;100.00
75521;BME280;64102;48.628;9.002;2023-12-20T11:54:21;96220.94;;;4.01;100.00
75521;BME280;64102;48.628;9.002;2023-12-20T11:56:47;96229.03;;;3.93;100.00
75521;BME280;64102;48.628;9.002;2023-12-20T11:59:13;96223.94;;;3.93;100.00
75521;BME280;64102;48.628;9.002;2023-12-20T12:01:38;96220.06;;;3.88;100.00
75521;BME280;64102;48.628;9.002;2023-12-20T12:04:06;96214.56;;;3.80;100.00
75521;BME280;64102;48.628;9.002;2023-12-20T12:06:32;96206.28;;;3.76;100.00
75521;BME280;64102;48.628;9.002;2023-12-20T12:08:57;96214.22;;;3.72;100.00
75521;BME280;64102;48.628;9.002;2023-12-20T12:11:23;96201.66;;;3.69;100.00
75521;BME280;64102;48.628;9.002;2023-12-20T12:13:48;96204.13;;;3.70;100.00
75521;BME280;64102;48.628;9.002;2023-12-20T12:16:20;96213.31;;;3.73;100.00
75521;BME280;64102;48.628;9.002;2023-12-20T12:18:46;96205.59;;;3.74;100.00
75521;BME280;64102;48.628;9.002;2023-12-20T12:21:19;96191.31;;;3.84;100.00
75521;BME280;64102;48.628;9.002;2023-12-20T12:23:45;96190.13;;;3.90;100.00
75521;BME280;64102;48.628;9.002;2023-12-20T12:26:11;96188.31;;;3.92;100.00
75521;BME280;64102;48.628;9.002;2023-12-20T12:28:37;96188.84;;;3.97;100.00
75521;BME280;64102;48.628;9.002;2023-12-20T12:31:04;96181.19;;;3.97;100.00
75521;BME280;64102;48.628;9.002;2023-12-20T12:33:30;96182.50;;;4.02;100.00
75521;BME280;64102;48.628;9.002;2023-12-20T12:35:55;96167.03;;;4.05;100.00
75521;BME280;64102;48.628;9.002;2023-12-20T12:38:22;96174.19;;;4.13;100.00
75521;BME280;64102;48.628;9.002;2023-12-20T12:40:47;96167.22;;;4.15;100.00
75521;BME280;64102;48.628;9.002;2023-12-20T12:43:13;96167.97;;;4.17;100.00
75521;BME280;64102;48.628;9.002;2023-12-20T12:45:38;96169.63;;;4.18;100.00
75521;BME280;64102;48.628;9.002;2023-12-20T12:48:04;96177.44;;;4.15;100.00
75521;BME280;64102;48.628;9.002;2023-12-20T12:50:30;96172.06;;;4.20;100.00
75521;BME280;64102;48.628;9.002;2023-12-20T12:52:56;96168.50;;;4.22;100.00
75521;BME280;64102;48.628;9.002;2023-12-20T12:55:21;96175.81;;;4.41;100.00
75521;BME280;64102;48.628;9.002;2023-12-20T12:57:47;96165.47;;;6.40;86.82
75521;BME280;64102;48.628;9.002;2023-12-20T13:00:12;96167.84;;;7.56;77.32
75521;BME280;64102;48.628;9.002;2023-12-20T13:02:39;96168.09;;;7.53;73.19
75521;BME280;64102;48.628;9.002;2023-12-20T13:05:07;96173.19;;;5.93;84.42
75521;BME280;64102;48.628;9.002;2023-12-20T13:07:33;96178.72;;;5.25;92.28